createdAt,value
2023-03-15T00:02:13.481Z,3.80
2023-03-15T00:04:40.098Z,5.82
2023-03-15T00:07:06.595Z,5.10
2023-03-15T00:09:32.975Z,2.80
2023-03-15T00:11:59.364Z,3.28
2023-03-15T00:14:25.772Z,5.07
2023-03-15T00:16:52.230Z,5.38
2023-03-15T00:19:18.633Z,5.55
2023-03-15T00:21:45.085Z,3.78
2023-03-15T00:24:11.607Z,1.70
2023-03-15T00:26:38.475Z,7.75
2023-03-15T00:29:04.936Z,2.22
2023-03-15T00:31:31.673Z,3.88
2023-03-15T00:33:58.103Z,7.03
2023-03-15T00:36:24.849Z,1.27
2023-03-15T00:38:52.209Z,1.65
2023-03-15T00:41:19.860Z,8.32
2023-03-15T00:43:47.096Z,5.32
2023-03-15T00:46:17.215Z,6.13
2023-03-15T00:48:43.694Z,2.88
2023-03-15T00:51:12.049Z,6.10
2023-03-15T00:53:39.316Z,5.55
2023-03-15T00:56:26.022Z,11.65
2023-03-15T00:58:55.504Z,3.33
2023-03-15T01:01:23.392Z,5.20
2023-03-15T01:03:49.952Z,6.95
2023-03-15T01:06:24.217Z,6.68
2023-03-15T01:08:51.528Z,6.95
2023-03-15T01:11:19.639Z,6.15
2023-03-15T01:13:46.071Z,2.05
2023-03-15T01:16:13.694Z,10.35
2023-03-15T01:18:40.232Z,6.85
2023-03-15T01:21:07.326Z,5.10
2023-03-15T01:23:33.796Z,8.70
2023-03-15T01:26:04.300Z,8.13
2023-03-15T01:28:30.806Z,11.13
2023-03-15T01:30:59.415Z,3.70
2023-03-15T01:33:26.202Z,10.02
2023-03-15T01:36:02.997Z,6.47
2023-03-15T01:38:29.767Z,10.02
2023-03-15T01:40:56.197Z,7.15
2023-03-15T01:43:23.595Z,5.57
2023-03-15T01:46:02.271Z,5.88
2023-03-15T01:48:44.931Z,7.03
2023-03-15T01:51:26.150Z,8.55
2023-03-15T01:54:19.138Z,4.07
2023-03-15T01:56:47.629Z,2.47
2023-03-15T01:59:16.712Z,5.13
2023-03-15T02:01:45.636Z,3.03
2023-03-15T02:04:15.540Z,7.00
2023-03-15T02:06:46.584Z,5.13
2023-03-15T02:09:17.375Z,10.10
2023-03-15T02:11:43.886Z,11.85
2023-03-15T02:14:12.419Z,8.30
2023-03-15T02:16:38.984Z,5.65
2023-03-15T02:19:06.973Z,6.20
2023-03-15T02:21:38.359Z,2.13
2023-03-15T02:24:23.555Z,8.15
2023-03-15T02:26:57.324Z,5.60
2023-03-15T02:29:24.944Z,4.65
2023-03-15T02:31:52.068Z,4.07
2023-03-15T02:34:18.614Z,6.15
2023-03-15T02:36:45.079Z,5.43
2023-03-15T02:39:18.898Z,7.85
2023-03-15T02:41:48.158Z,5.20
2023-03-15T02:44:17.339Z,5.65
2023-03-15T02:46:45.043Z,6.05
2023-03-15T02:49:13.434Z,13.85
2023-03-15T02:51:39.880Z,6.70
2023-03-15T02:54:06.377Z,5.22
2023-03-15T02:56:35.775Z,4.32
2023-03-15T02:59:02.224Z,4.40
2023-03-15T03:01:28.686Z,7.65
2023-03-15T03:03:55.085Z,4.65
2023-03-15T03:06:21.509Z,5.65
2023-03-15T03:08:47.911Z,7.35
2023-03-15T03:11:14.746Z,8.30
2023-03-15T03:13:41.602Z,7.03
2023-03-15T03:16:08.416Z,4.80
2023-03-15T03:18:35.766Z,8.23
2023-03-15T03:21:03.822Z,5.80
2023-03-15T03:23:30.996Z,4.65
2023-03-15T03:25:57.871Z,7.80
2023-03-15T03:28:25.488Z,3.20
2023-03-15T03:30:52.583Z,4.20
2023-03-15T03:33:19.466Z,6.07
2023-03-15T03:35:45.931Z,6.97
2023-03-15T03:38:12.425Z,4.07
2023-03-15T03:40:39.148Z,12.55
2023-03-15T03:43:05.810Z,5.25
2023-03-15T03:45:32.465Z,13.45
2023-03-15T03:47:58.984Z,6.18
2023-03-15T03:50:25.874Z,6.85
2023-03-15T03:52:52.299Z,3.60
2023-03-15T03:55:18.779Z,4.68
2023-03-15T03:57:45.216Z,5.18
2023-03-15T04:00:14.357Z,9.00
2023-03-15T04:02:44.106Z,5.88
2023-03-15T04:05:11.341Z,8.87
2023-03-15T04:07:38.100Z,5.75
2023-03-15T04:10:04.916Z,7.05
2023-03-15T04:12:31.728Z,8.00
2023-03-15T04:15:00.872Z,5.22
2023-03-15T04:17:27.300Z,5.32
2023-03-15T04:19:54.101Z,6.32
2023-03-15T04:22:20.526Z,3.63
2023-03-15T04:24:50.644Z,5.35
2023-03-15T04:27:17.096Z,4.50
2023-03-15T04:29:43.874Z,2.10
2023-03-15T04:32:10.878Z,5.50
2023-03-15T04:34:39.980Z,7.68
2023-03-15T04:37:06.424Z,4.85
2023-03-15T04:39:32.974Z,2.53
2023-03-15T04:41:59.419Z,11.75
2023-03-15T04:44:27.468Z,5.88
2023-03-15T04:46:58.141Z,3.72
2023-03-15T04:51:50.915Z,3.88
2023-03-15T04:54:17.372Z,3.20
2023-03-15T04:56:43.839Z,8.25
2023-03-15T04:59:11.285Z,7.05
2023-03-15T05:01:37.883Z,5.13
2023-03-15T05:04:07.084Z,3.58
2023-03-15T05:06:33.472Z,5.13
2023-03-15T05:09:00.125Z,6.78
2023-03-15T05:11:26.637Z,9.75
2023-03-15T05:13:53.502Z,10.35
2023-03-15T05:16:19.924Z,3.75
2023-03-15T05:18:46.407Z,6.90
2023-03-15T05:21:13.376Z,11.60
2023-03-15T05:23:39.922Z,7.15
2023-03-15T05:26:06.388Z,6.90
2023-03-15T05:28:32.903Z,4.47
2023-03-15T05:31:00.662Z,8.90
2023-03-15T05:33:27.354Z,8.55
2023-03-15T05:35:56.034Z,6.93
2023-03-15T05:38:28.508Z,6.50
2023-03-15T05:40:54.992Z,12.68
2023-03-15T05:43:21.699Z,8.93
2023-03-15T05:45:48.725Z,5.70
2023-03-15T05:48:16.563Z,6.72
2023-03-15T05:50:43.032Z,5.68
2023-03-15T05:53:09.839Z,8.52
2023-03-15T05:55:37.182Z,6.45
2023-03-15T05:58:05.789Z,7.05
2023-03-15T06:00:32.233Z,6.68
2023-03-15T06:02:59.342Z,10.00
2023-03-15T06:05:26.063Z,2.53
2023-03-15T06:07:52.648Z,9.18
2023-03-15T06:10:19.257Z,4.53
2023-03-15T06:12:45.713Z,8.32
2023-03-15T06:15:12.123Z,7.20
2023-03-15T06:17:38.564Z,5.22
2023-03-15T06:20:05.397Z,14.02
2023-03-15T06:22:31.796Z,13.52
2023-03-15T06:24:58.325Z,7.55
2023-03-15T06:27:24.802Z,8.48
2023-03-15T06:29:51.280Z,9.70
2023-03-15T06:32:17.711Z,7.20
2023-03-15T06:34:44.233Z,4.85
2023-03-15T06:37:16.188Z,7.75
2023-03-15T06:39:44.769Z,3.88
2023-03-15T06:42:13.835Z,7.55
2023-03-15T06:44:41.327Z,9.68
2023-03-15T06:47:08.230Z,5.63
2023-03-15T06:49:35.394Z,6.03
2023-03-15T06:52:01.898Z,6.25
2023-03-15T06:54:28.345Z,8.55
2023-03-15T06:56:54.771Z,4.00
2023-03-15T06:59:21.231Z,3.30
2023-03-15T07:01:47.820Z,4.97
2023-03-15T07:04:14.270Z,5.68
2023-03-15T07:06:40.729Z,5.68
2023-03-15T07:09:07.490Z,6.70
2023-03-15T07:11:35.838Z,2.85
2023-03-15T07:14:02.299Z,3.92
2023-03-15T07:16:28.781Z,13.50
2023-03-15T07:18:56.611Z,7.03
2023-03-15T07:21:23.085Z,6.63
2023-03-15T07:23:49.520Z,14.43
2023-03-15T07:26:16.025Z,9.63
2023-03-15T07:28:44.679Z,8.60
2023-03-15T07:31:11.638Z,5.45
2023-03-15T07:33:38.645Z,5.25
2023-03-15T07:36:06.348Z,5.10
2023-03-15T07:38:33.632Z,9.60
2023-03-15T07:41:04.566Z,6.55
2023-03-15T07:43:31.261Z,2.40
2023-03-15T07:45:57.663Z,7.93
2023-03-15T07:48:24.191Z,7.15
2023-03-15T07:50:50.651Z,4.28
2023-03-15T07:53:17.069Z,8.48
2023-03-15T07:55:43.757Z,7.65
2023-03-15T07:58:10.275Z,2.75
2023-03-15T08:00:36.783Z,7.50
2023-03-15T08:03:03.281Z,4.72
2023-03-15T08:05:29.823Z,10.27
2023-03-15T08:07:56.682Z,5.45
2023-03-15T08:10:23.219Z,4.75
2023-03-15T08:12:49.639Z,6.32
2023-03-15T08:15:16.352Z,5.70
2023-03-15T08:17:42.904Z,2.67
2023-03-15T08:20:11.621Z,7.43
2023-03-15T08:22:39.201Z,7.10
2023-03-15T08:25:06.192Z,8.50
2023-03-15T08:27:34.338Z,8.00
2023-03-15T08:30:01.371Z,5.60
2023-03-15T08:32:27.829Z,2.42
2023-03-15T08:34:54.360Z,3.35
2023-03-15T08:37:21.092Z,5.57
2023-03-15T08:39:47.534Z,5.47
2023-03-15T08:42:13.951Z,11.70
2023-03-15T08:44:40.624Z,2.60
2023-03-15T08:47:07.316Z,5.90
2023-03-15T08:49:33.754Z,8.30
2023-03-15T08:52:00.379Z,7.72
2023-03-15T08:54:27.578Z,8.52
2023-03-15T08:56:54.028Z,9.07
2023-03-15T08:59:31.517Z,7.05
2023-03-15T09:01:59.998Z,6.90
2023-03-15T09:04:26.540Z,4.45
2023-03-15T09:06:53.867Z,7.78
2023-03-15T09:09:20.258Z,3.25
2023-03-15T09:11:46.621Z,10.85
2023-03-15T09:14:13.064Z,7.00
2023-03-15T09:16:39.442Z,7.20
2023-03-15T09:19:05.895Z,3.42
2023-03-15T09:21:32.286Z,4.70
2023-03-15T09:23:58.698Z,6.60
2023-03-15T09:26:25.158Z,2.83
2023-03-15T09:28:51.606Z,2.28
2023-03-15T09:31:18.132Z,4.55
2023-03-15T09:33:46.381Z,3.47
2023-03-15T09:36:12.816Z,4.90
2023-03-15T09:38:39.278Z,9.52
2023-03-15T09:41:06.381Z,6.20
2023-03-15T09:43:57.392Z,3.33
2023-03-15T09:49:12.684Z,6.65
2023-03-15T09:51:39.057Z,8.32
2023-03-15T09:54:05.885Z,3.47
2023-03-15T09:56:40.355Z,6.28
2023-03-15T09:59:07.203Z,1.65
2023-03-15T10:01:38.307Z,6.85
2023-03-15T10:04:18.786Z,5.20
2023-03-15T10:06:48.062Z,5.78
2023-03-15T10:09:19.713Z,3.33
2023-03-15T10:11:50.212Z,3.42
2023-03-15T10:14:20.239Z,5.10
2023-03-15T10:16:47.936Z,5.73
2023-03-15T10:19:15.077Z,6.45
2023-03-15T10:22:00.633Z,3.15
2023-03-15T10:24:35.913Z,11.52
2023-03-15T10:27:09.089Z,5.32
2023-03-15T10:29:36.656Z,2.78
2023-03-15T10:32:05.233Z,5.75
2023-03-15T10:34:31.684Z,4.57
2023-03-15T10:36:58.095Z,5.05
2023-03-15T10:39:27.643Z,1.90
2023-03-15T10:41:54.092Z,2.85
2023-03-15T10:44:22.650Z,3.38
2023-03-15T10:47:22.165Z,3.33
2023-03-15T10:49:50.769Z,2.53
2023-03-15T10:52:27.653Z,3.97
2023-03-15T10:54:58.733Z,1.92
2023-03-15T10:57:34.525Z,2.83
2023-03-15T11:00:06.862Z,2.58
2023-03-15T11:02:33.373Z,5.28
2023-03-15T11:05:04.159Z,4.82
2023-03-15T11:07:34.276Z,2.67
2023-03-15T11:10:01.616Z,2.65
2023-03-15T11:12:33.299Z,3.90
2023-03-15T11:15:15.490Z,7.07
2023-03-15T11:17:46.503Z,3.53
2023-03-15T11:20:26.068Z,4.97
2023-03-15T11:22:53.778Z,1.05
2023-03-15T11:25:21.632Z,2.10
2023-03-15T11:27:53.493Z,4.82
2023-03-15T11:30:25.504Z,6.53
2023-03-15T11:32:52.143Z,3.70
2023-03-15T11:35:29.119Z,4.50
2023-03-15T11:38:06.226Z,3.03
2023-03-15T11:40:48.133Z,2.10
2023-03-15T11:43:19.862Z,3.05
2023-03-15T11:46:00.101Z,3.17
2023-03-15T11:48:44.078Z,6.30
2023-03-15T11:51:12.006Z,2.08
2023-03-15T11:53:44.183Z,3.80
2023-03-15T11:56:21.076Z,2.78
2023-03-15T11:59:04.048Z,4.47
2023-03-15T12:01:31.139Z,7.68
2023-03-15T12:04:36.363Z,2.95
2023-03-15T12:07:05.795Z,1.73
2023-03-15T12:09:32.356Z,2.17
2023-03-15T12:11:59.692Z,4.57
2023-03-15T12:14:33.168Z,2.38
2023-03-15T12:17:18.397Z,1.95
2023-03-15T12:19:44.914Z,3.90
2023-03-15T12:22:15.533Z,3.50
2023-03-15T12:24:44.256Z,3.20
2023-03-15T12:27:18.461Z,2.17
2023-03-15T12:29:48.682Z,3.05
2023-03-15T12:32:16.427Z,3.28
2023-03-15T12:34:45.781Z,3.53
2023-03-15T12:37:21.058Z,2.92
2023-03-15T12:40:01.059Z,3.03
2023-03-15T12:42:31.704Z,2.25
2023-03-15T12:45:18.465Z,1.48
2023-03-15T12:47:44.862Z,7.20
2023-03-15T12:50:37.851Z,2.83
2023-03-15T12:53:12.022Z,0.70
2023-03-15T12:55:38.881Z,2.92
2023-03-15T12:58:05.360Z,1.88
2023-03-15T13:00:33.377Z,2.75
2023-03-15T13:03:05.850Z,3.42
2023-03-15T13:06:02.797Z,3.15
2023-03-15T13:08:49.753Z,3.53
2023-03-15T13:11:32.966Z,1.77
2023-03-15T13:14:18.159Z,6.03
2023-03-15T13:17:00.348Z,2.80
2023-03-15T13:19:27.532Z,3.78
2023-03-15T13:21:59.880Z,4.70
2023-03-15T13:24:33.424Z,4.15
2023-03-15T13:27:20.124Z,4.72
2023-03-15T13:29:46.532Z,3.95
2023-03-15T13:32:17.128Z,2.22
2023-03-15T13:34:47.414Z,2.58
2023-03-15T13:37:29.097Z,2.20
2023-03-15T13:40:08.726Z,3.33
2023-03-15T13:42:39.290Z,2.63
2023-03-15T13:45:09.060Z,2.90
2023-03-15T13:47:35.477Z,5.23
2023-03-15T13:50:05.830Z,4.10
2023-03-15T13:52:32.363Z,4.57
2023-03-15T13:54:59.465Z,2.58
2023-03-15T13:57:26.875Z,6.03
2023-03-15T13:59:53.247Z,3.10
2023-03-15T14:02:20.973Z,1.63
2023-03-15T14:04:51.784Z,2.53
2023-03-15T14:07:18.170Z,2.50
2023-03-15T14:09:45.525Z,3.38
2023-03-15T14:12:17.888Z,4.43
2023-03-15T14:14:51.547Z,2.30
2023-03-15T14:17:20.720Z,3.03
2023-03-15T14:19:52.452Z,1.20
2023-03-15T14:22:19.301Z,2.80
2023-03-15T14:24:47.690Z,2.90
2023-03-15T14:27:22.119Z,4.65
2023-03-15T14:29:51.469Z,4.80
2023-03-15T14:32:31.832Z,3.75
2023-03-15T14:35:06.477Z,2.58
2023-03-15T14:37:40.458Z,2.67
2023-03-15T14:40:10.775Z,1.33
2023-03-15T14:42:37.175Z,1.70
2023-03-15T14:45:03.747Z,4.70
2023-03-15T14:47:30.256Z,3.97
2023-03-15T14:49:56.866Z,1.75
2023-03-15T14:52:24.805Z,1.65
2023-03-15T14:54:51.489Z,2.22
2023-03-15T14:57:17.975Z,1.77
2023-03-15T14:59:44.372Z,4.78
2023-03-15T15:02:16.917Z,3.22
2023-03-15T15:04:43.990Z,5.03
2023-03-15T15:07:14.566Z,3.50
2023-03-15T15:09:43.832Z,3.22
2023-03-15T15:12:11.161Z,2.15
2023-03-15T15:14:37.591Z,4.38
2023-03-15T15:17:04.289Z,5.05
2023-03-15T15:19:30.719Z,4.80
2023-03-15T15:21:57.469Z,3.35
2023-03-15T15:24:25.431Z,5.53
2023-03-15T15:26:52.041Z,4.90
2023-03-15T15:29:18.424Z,5.50
2023-03-15T15:31:47.630Z,3.20
2023-03-15T15:34:14.893Z,4.50
2023-03-15T15:36:42.662Z,3.95
2023-03-15T15:39:15.192Z,1.50
2023-03-15T15:41:41.590Z,4.30
2023-03-15T15:44:14.222Z,2.13
2023-03-15T15:46:40.769Z,4.13
2023-03-15T15:49:07.168Z,3.65
2023-03-15T15:51:42.304Z,2.50
2023-03-15T15:54:14.757Z,5.28
2023-03-15T15:56:45.313Z,2.72
2023-03-15T15:59:13.650Z,2.03
2023-03-15T16:01:56.649Z,4.22
2023-03-15T16:04:25.849Z,2.80
2023-03-15T16:06:54.536Z,5.32
2023-03-15T16:09:21.566Z,3.33
2023-03-15T16:11:50.537Z,5.38
2023-03-15T16:14:17.158Z,2.42
2023-03-15T16:16:43.647Z,6.43
2023-03-15T16:19:10.069Z,5.55
2023-03-15T16:21:41.270Z,5.57
2023-03-15T16:24:12.438Z,5.80
2023-03-15T16:26:39.605Z,4.28
2023-03-15T16:29:26.954Z,2.45
2023-03-15T16:31:59.180Z,2.83
2023-03-15T16:34:30.248Z,1.48
2023-03-15T16:36:56.673Z,2.67
2023-03-15T16:39:23.155Z,4.13
2023-03-15T16:41:49.598Z,3.92
2023-03-15T16:44:17.395Z,4.55
2023-03-15T16:46:44.010Z,3.70
2023-03-15T16:49:10.602Z,3.97
2023-03-15T16:51:42.311Z,4.95
2023-03-15T16:54:21.780Z,3.63
2023-03-15T16:56:54.040Z,10.88
2023-03-15T16:59:21.197Z,2.85
2023-03-15T17:01:49.281Z,2.17
2023-03-15T17:04:16.273Z,3.85
2023-03-15T17:06:45.332Z,5.63
2023-03-15T17:09:13.830Z,6.47
2023-03-15T17:11:41.152Z,4.85
2023-03-15T17:14:10.992Z,4.05
2023-03-15T17:16:37.459Z,7.57
2023-03-15T17:19:04.373Z,2.40
2023-03-15T17:21:33.792Z,1.60
2023-03-15T17:24:00.493Z,3.65
2023-03-15T17:26:29.440Z,7.75
2023-03-15T17:28:55.845Z,5.53
2023-03-15T17:31:26.070Z,4.55
2023-03-15T17:33:52.504Z,6.35
2023-03-15T17:36:22.814Z,6.10
2023-03-15T17:38:49.624Z,4.05
2023-03-15T17:41:24.257Z,11.10
2023-03-15T17:43:51.188Z,2.45
2023-03-15T17:46:18.215Z,2.47
2023-03-15T17:48:45.004Z,4.38
2023-03-15T17:51:17.356Z,4.40
2023-03-15T17:53:43.849Z,5.13
2023-03-15T17:56:10.296Z,2.85
2023-03-15T17:58:36.735Z,3.13
2023-03-15T18:01:04.485Z,3.33
2023-03-15T18:03:31.380Z,5.32
2023-03-15T18:06:01.269Z,7.53
2023-03-15T18:08:27.732Z,4.13
2023-03-15T18:10:54.537Z,2.72
2023-03-15T18:13:21.489Z,2.15
2023-03-15T18:15:49.676Z,3.38
2023-03-15T18:18:16.254Z,4.82
2023-03-15T18:20:43.121Z,5.65
2023-03-15T18:23:11.732Z,5.10
2023-03-15T18:25:38.136Z,11.60
2023-03-15T18:28:04.666Z,3.90
2023-03-15T18:30:31.500Z,5.80
2023-03-15T18:32:58.324Z,6.80
2023-03-15T18:35:29.643Z,3.95
2023-03-15T18:37:59.466Z,3.67
2023-03-15T18:40:28.915Z,6.25
2023-03-15T18:42:57.027Z,5.65
2023-03-15T18:45:28.491Z,5.32
2023-03-15T18:47:55.207Z,2.80
2023-03-15T18:50:21.684Z,5.30
2023-03-15T18:52:48.498Z,7.57
2023-03-15T18:55:16.442Z,4.00
2023-03-15T18:57:43.234Z,6.43
2023-03-15T19:00:15.019Z,1.73
2023-03-15T19:02:42.111Z,3.25
2023-03-15T19:05:08.794Z,7.43
2023-03-15T19:07:35.258Z,11.80
2023-03-15T19:10:01.691Z,6.30
2023-03-15T19:12:28.227Z,5.28
2023-03-15T19:14:54.602Z,6.03
2023-03-15T19:17:20.979Z,6.50
2023-03-15T19:19:47.358Z,3.25
2023-03-15T19:22:13.742Z,6.22
2023-03-15T19:24:40.237Z,7.38
2023-03-15T19:27:06.698Z,3.50
2023-03-15T19:29:35.239Z,4.07
2023-03-15T19:32:01.824Z,2.88
2023-03-15T19:34:28.273Z,6.20
2023-03-15T19:36:54.672Z,3.53
2023-03-15T19:39:21.063Z,5.43
2023-03-15T19:41:47.550Z,3.40
2023-03-15T19:44:14.159Z,10.07
2023-03-15T19:46:40.985Z,9.43
2023-03-15T19:49:07.523Z,10.82
2023-03-15T19:51:33.890Z,5.88
2023-03-15T19:54:00.729Z,6.40
2023-03-15T19:56:27.136Z,11.90
2023-03-15T19:58:53.530Z,11.32
2023-03-15T20:01:20.017Z,8.43
2023-03-15T20:03:46.586Z,6.25
2023-03-15T20:06:13.967Z,4.82
2023-03-15T20:08:41.637Z,5.93
2023-03-15T20:11:14.846Z,29.50
2023-03-15T20:13:41.304Z,13.23
2023-03-15T20:16:07.988Z,12.65
2023-03-15T20:18:34.502Z,21.20
2023-03-15T20:21:00.931Z,16.02
2023-03-15T20:23:28.234Z,14.45
2023-03-15T20:26:09.896Z,17.40
2023-03-15T20:28:37.576Z,41.35
2023-03-15T20:31:12.272Z,49.70
2023-03-15T20:33:38.757Z,28.92
2023-03-15T20:36:05.688Z,14.55
2023-03-15T20:38:34.300Z,9.75
2023-03-15T20:41:00.998Z,9.13
2023-03-15T20:43:27.491Z,8.52
2023-03-15T20:45:54.508Z,7.43
2023-03-15T20:48:23.461Z,7.68
2023-03-15T20:50:49.874Z,7.25
2023-03-15T20:53:16.276Z,4.75
2023-03-15T20:55:43.563Z,6.13
2023-03-15T20:58:10.021Z,11.75
2023-03-15T21:00:37.322Z,7.18
2023-03-15T21:03:03.779Z,7.90
2023-03-15T21:05:31.474Z,8.27
2023-03-15T21:07:58.069Z,5.00
2023-03-15T21:10:25.294Z,5.93
2023-03-15T21:12:51.836Z,11.00
2023-03-15T21:15:18.906Z,6.53
2023-03-15T21:17:46.140Z,8.13
2023-03-15T21:20:15.324Z,9.50
2023-03-15T21:22:41.971Z,10.27
2023-03-15T21:25:08.674Z,7.72
2023-03-15T21:27:35.156Z,6.93
2023-03-15T21:30:01.591Z,5.22
2023-03-15T21:32:28.134Z,5.32
2023-03-15T21:34:54.563Z,4.30
2023-03-15T21:37:20.990Z,4.45
2023-03-15T21:39:47.406Z,5.50
2023-03-15T21:42:13.782Z,7.10
2023-03-15T21:44:40.628Z,4.55
2023-03-15T21:47:09.128Z,5.15
2023-03-15T21:49:35.577Z,5.05
2023-03-15T21:52:04.887Z,3.53
2023-03-15T21:54:31.278Z,2.95
2023-03-15T21:56:57.770Z,1.77
2023-03-15T21:59:29.925Z,1.80
2023-03-15T22:01:57.132Z,2.63
2023-03-15T22:04:26.742Z,2.53
2023-03-15T22:06:53.493Z,3.00
2023-03-15T22:09:20.231Z,1.83
2023-03-15T22:11:46.794Z,3.53
2023-03-15T22:14:13.214Z,7.07
2023-03-15T22:16:39.737Z,4.25
2023-03-15T22:19:06.954Z,2.35
2023-03-15T22:21:36.378Z,2.47
2023-03-15T22:24:02.757Z,1.52
2023-03-15T22:26:29.255Z,1.13
2023-03-15T22:28:55.768Z,3.17
2023-03-15T22:31:22.266Z,1.27
2023-03-15T22:33:48.743Z,2.97
2023-03-15T22:36:17.163Z,1.65
2023-03-15T22:38:50.306Z,1.13
2023-03-15T22:41:17.915Z,1.17
2023-03-15T22:43:45.410Z,0.88
2023-03-15T22:46:11.883Z,2.63
2023-03-15T22:48:38.338Z,1.67
2023-03-15T22:51:06.127Z,3.13
2023-03-15T22:53:32.928Z,2.72
2023-03-15T22:55:59.554Z,4.82
2023-03-15T22:58:26.357Z,7.70
2023-03-15T23:00:52.972Z,4.82
2023-03-15T23:03:19.421Z,5.32
2023-03-15T23:05:46.107Z,3.40
2023-03-15T23:08:13.008Z,4.22
2023-03-15T23:10:40.736Z,4.57
2023-03-15T23:13:09.124Z,6.78
2023-03-15T23:15:35.520Z,7.32
2023-03-15T23:18:01.988Z,7.43
2023-03-15T23:20:28.842Z,4.38
2023-03-15T23:22:55.463Z,10.57
2023-03-15T23:25:22.473Z,2.75
2023-03-15T23:27:49.142Z,4.93
2023-03-15T23:30:15.562Z,5.53
2023-03-15T23:32:42.105Z,2.83
2023-03-15T23:35:09.527Z,3.25
2023-03-15T23:37:35.928Z,4.45
2023-03-15T23:40:02.369Z,3.70
2023-03-15T23:42:28.828Z,7.72
2023-03-15T23:44:55.641Z,4.25
2023-03-15T23:47:22.948Z,3.15
2023-03-15T23:49:49.954Z,2.95
2023-03-15T23:52:16.403Z,7.55
2023-03-15T23:54:42.787Z,4.30
2023-03-15T23:57:10.238Z,5.97
2023-03-15T23:59:37.139Z,3.95
